Time;durP1;ratioP1;P1;durP2;ratioP2;P2;SDS_P1;SDS_P2;PMS_P1;PMS_P2;Temp;Humidity;BMP_temperature;BMP_pressure;BME280_temperature;BME280_humidity;BME280_pressure;Samples;Min_cycle;Max_cycle;Signal;HPM_P1;HPM_P2
2022/01/27 00:04:34;;;;;;;6.15;4.85;;;;;;;20.16;29.94;102809.59;7307333;19;131435;-66
2022/01/27 00:07:01;;;;;;;7.80;4.50;;;;;;;20.13;29.80;102807.22;7307513;19;130380;-66
2022/01/27 00:12:18;;;;;;;6.40;5.20;;;;;;;20.11;29.61;102812.13;7308678;19;130357;-66
2022/01/27 00:14:52;;;;;;;5.97;4.43;;;;;;;20.09;30.32;102805.91;7309673;19;131656;-66
2022/01/27 00:17:27;;;;;;;7.40;4.93;;;;;;;20.07;29.86;102805.25;7305297;19;131207;-66
2022/01/27 00:19:54;;;;;;;7.53;5.00;;;;;;;20.06;29.83;102798.03;7306787;19;130369;-67
2022/01/27 00:22:21;;;;;;;7.60;5.05;;;;;;;20.05;29.80;102786.03;7309407;19;130746;-66
2022/01/27 00:24:48;;;;;;;5.50;4.72;;;;;;;20.06;29.75;102792.47;7308124;19;130785;-67
2022/01/27 00:27:14;;;;;;;6.72;5.07;;;;;;;20.06;29.78;102781.34;7309568;19;130414;-66
2022/01/27 00:29:41;;;;;;;6.15;4.78;;;;;;;20.07;29.88;102788.59;7308343;19;129778;-67
2022/01/27 00:32:08;;;;;;;8.38;5.18;;;;;;;20.07;30.00;102781.13;7309242;19;129217;-66
2022/01/27 00:34:34;;;;;;;6.82;5.00;;;;;;;20.08;29.57;102773.63;7309985;19;130555;-66
2022/01/27 00:37:01;;;;;;;10.30;4.75;;;;;;;20.07;30.03;102778.34;7308788;19;130660;-67
2022/01/27 00:39:28;;;;;;;9.82;4.63;;;;;;;20.08;29.86;102779.19;7311076;19;129549;-66
2022/01/27 00:41:54;;;;;;;8.85;4.55;;;;;;;20.08;29.85;102770.84;7308171;19;128871;-66
2022/01/27 00:44:21;;;;;;;8.25;5.15;;;;;;;20.08;30.05;102763.41;7310255;19;130454;-66
2022/01/27 00:46:48;;;;;;;7.60;4.95;;;;;;;20.07;30.11;102760.81;7306821;19;130591;-67
2022/01/27 00:49:15;;;;;;;5.00;4.35;;;;;;;20.07;29.82;102749.69;7310395;19;130508;-67
2022/01/27 00:51:45;;;;;;;7.22;4.28;;;;;;;20.08;29.98;102743.06;7305643;19;130010;-66
2022/01/27 00:54:22;;;;;;;6.10;4.00;;;;;;;20.07;30.16;102745.00;7309323;19;130617;-65
2022/01/27 00:59:51;;;;;;;6.72;4.40;;;;;;;20.06;30.23;102759.97;7308190;19;128979;-67
2022/01/27 01:02:33;;;;;;;6.03;4.38;;;;;;;20.07;29.88;102760.81;7311648;19;129418;-66
2022/01/27 01:09:22;;;;;;;5.80;4.18;;;;;;;20.06;30.11;102748.00;7306523;19;130736;-66
2022/01/27 01:34:54;;;;;;;7.82;4.03;;;;;;;19.83;30.24;102688.09;7315841;19;128902;-66
2022/01/27 01:37:20;;;;;;;6.43;3.97;;;;;;;19.81;30.45;102691.09;7313603;19;130564;-66
2022/01/27 01:39:47;;;;;;;5.10;3.63;;;;;;;19.80;30.42;102689.38;7314469;19;131130;-66
2022/01/27 01:42:14;;;;;;;5.75;4.13;;;;;;;19.80;30.10;102681.06;7315279;19;128941;-66
2022/01/27 01:44:43;;;;;;;4.47;3.58;;;;;;;19.79;30.44;102695.16;7314195;19;129152;-66
2022/01/27 01:47:09;;;;;;;4.55;3.83;;;;;;;19.79;30.24;102700.72;7316012;19;130575;-67
2022/01/27 01:49:36;;;;;;;4.63;3.50;;;;;;;19.76;30.53;102690.84;7312957;19;130552;-66
2022/01/27 01:52:06;;;;;;;5.13;3.55;;;;;;;19.75;30.48;102688.31;7316361;19;129267;-66
2022/01/27 01:54:33;;;;;;;6.30;4.07;;;;;;;19.74;30.18;102689.38;7313101;19;129837;-66
2022/01/27 01:57:00;;;;;;;4.60;3.80;;;;;;;19.72;30.35;102688.72;7314109;19;132504;-66
2022/01/27 01:59:27;;;;;;;6.47;3.97;;;;;;;19.72;30.23;102680.38;7313212;19;130659;-66
2022/01/27 02:01:54;;;;;;;6.82;4.13;;;;;;;19.69;30.66;102681.69;7314043;19;129145;-66
2022/01/27 02:04:20;;;;;;;5.38;3.75;;;;;;;19.66;30.22;102677.41;7315407;19;131791;-66
2022/01/27 02:06:55;;;;;;;4.43;3.78;;;;;;;19.65;30.22;102659.03;7312725;19;130462;-66
2022/01/27 02:20:40;;;;;;;5.15;3.72;;;;;;;19.58;30.16;102652.59;7309125;19;130523;-66
2022/01/27 02:23:11;;;;;;;5.07;3.40;;;;;;;19.57;30.54;102644.50;7315569;19;128897;-65
2022/01/27 02:25:38;;;;;;;5.15;3.40;;;;;;;19.55;30.52;102646.63;7312232;19;129044;-66
2022/01/27 02:28:05;;;;;;;5.15;3.95;;;;;;;19.54;30.22;102651.34;7315172;19;131205;-66
2022/01/27 02:30:32;;;;;;;6.03;3.60;;;;;;;19.51;30.33;102647.03;7313903;19;130542;-66
2022/01/27 02:32:59;;;;;;;6.60;3.95;;;;;;;19.52;30.15;102650.69;7312978;19;129049;-66
2022/01/27 02:35:29;;;;;;;5.10;3.65;;;;;;;19.51;30.53;102646.19;7314321;19;128984;-66
2022/01/27 02:37:56;;;;;;;7.90;3.65;;;;;;;19.50;30.48;102638.94;7311488;19;131712;-66
2022/01/27 02:40:25;;;;;;;5.28;3.80;;;;;;;19.49;30.55;102628.88;7314804;19;130563;-66
2022/01/27 02:42:53;;;;;;;5.72;3.78;;;;;;;19.48;30.45;102618.84;7311393;19;129161;-66
2022/01/27 02:45:50;;;;;;;4.95;3.30;;;;;;;19.48;30.54;102611.38;7314241;19;131415;-66
2022/01/27 02:48:16;;;;;;;5.95;3.53;;;;;;;19.45;30.51;102603.47;7311275;19;130653;-66
2022/01/27 02:50:43;;;;;;;5.05;3.75;;;;;;;19.43;30.45;102591.72;7312380;19;130491;-66
2022/01/27 02:53:10;;;;;;;3.92;3.50;;;;;;;19.43;30.67;102594.50;7314202;19;129172;-66
2022/01/27 02:55:37;;;;;;;7.22;3.80;;;;;;;19.42;30.47;102584.47;7310830;19;129467;-66
2022/01/27 02:58:04;;;;;;;3.92;3.20;;;;;;;19.42;30.42;102587.25;7313855;19;130801;-66
2022/01/27 03:00:32;;;;;;;5.25;3.45;;;;;;;19.42;30.19;102580.84;7310249;19;131343;-66
2022/01/27 03:02:59;;;;;;;5.95;3.60;;;;;;;19.42;30.29;102580.84;7313244;19;128743;-66
2022/01/27 03:05:26;;;;;;;4.13;3.45;;;;;;;19.38;30.18;102592.38;7309838;19;129293;-66
2022/01/27 03:07:53;;;;;;;4.32;3.58;;;;;;;19.38;30.40;102586.81;7313475;19;131422;-66
2022/01/27 03:10:21;;;;;;;5.57;3.47;;;;;;;19.37;30.63;102592.59;7311846;19;130851;-66
2022/01/27 03:12:56;;;;;;;4.78;3.60;;;;;;;19.36;30.42;102588.94;7310803;19;129307;-66
2022/01/27 03:15:23;;;;;;;4.07;3.28;;;;;;;19.35;30.26;102592.78;7313641;19;129512;-66
2022/01/27 03:17:50;;;;;;;4.35;3.55;;;;;;;19.34;30.30;102585.50;7311236;19;131155;-66
2022/01/27 03:20:18;;;;;;;5.30;3.72;;;;;;;19.34;30.44;102581.91;7313118;19;131130;-66
2022/01/27 03:22:44;;;;;;;5.05;3.53;;;;;;;19.34;30.47;102591.06;7309930;19;128956;-66
2022/01/27 03:25:11;;;;;;;4.93;3.80;;;;;;;19.32;30.28;102576.53;7312215;19;130525;-66
2022/01/27 03:27:45;;;;;;;7.95;3.55;;;;;;;19.31;30.42;102583.19;7309566;19;131008;-66
2022/01/27 03:30:12;;;;;;;3.58;3.20;;;;;;;19.31;30.19;102580.41;7310974;19;131703;-66
2022/01/27 03:32:39;;;;;;;4.57;3.53;;;;;;;19.31;30.44;102583.19;7311354;19;128962;-66
2022/01/27 03:35:06;;;;;;;4.22;3.53;;;;;;;19.30;30.22;102577.81;7309026;19;128950;-66
2022/01/27 03:37:32;;;;;;;4.53;3.15;;;;;;;19.29;30.30;102565.88;7312496;19;130693;-66
2022/01/27 03:39:59;;;;;;;4.18;3.40;;;;;;;19.28;30.15;102553.06;7311208;19;131411;-66
2022/01/27 03:42:27;;;;;;;8.32;3.88;;;;;;;19.28;30.55;102541.97;7310869;19;128948;-66
2022/01/27 03:44:53;;;;;;;4.95;3.63;;;;;;;19.27;30.44;102542.16;7312188;19;129071;-66
2022/01/27 03:47:20;;;;;;;6.70;3.72;;;;;;;19.26;30.19;102541.31;7310054;19;131083;-66
2022/01/27 03:49:47;;;;;;;5.03;3.35;;;;;;;19.24;30.24;102546.22;7313029;19;130606;-66
2022/01/27 03:52:14;;;;;;;6.28;3.60;;;;;;;19.23;30.54;102547.28;7310815;19;128827;-66
2022/01/27 03:54:41;;;;;;;4.13;3.25;;;;;;;19.22;30.51;102543.69;7310672;19;129079;-66
2022/01/27 03:57:07;;;;;;;4.57;3.50;;;;;;;19.22;30.10;102538.13;7309108;19;131571;-66
2022/01/27 03:59:34;;;;;;;4.25;3.20;;;;;;;19.20;30.13;102534.66;7312804;19;130597;-66
2022/01/27 04:02:04;;;;;;;5.78;3.75;;;;;;;19.20;30.14;102542.16;7309415;19;129098;-66
2022/01/27 04:04:32;;;;;;;5.15;3.67;;;;;;;19.19;30.58;102546.84;7312020;19;129585;-66
2022/01/27 04:06:59;;;;;;;4.32;3.58;;;;;;;19.19;30.52;102543.22;7308966;19;138073;-66
2022/01/27 04:09:28;;;;;;;4.45;3.15;;;;;;;19.18;30.25;102541.50;7311828;19;130667;-66
2022/01/27 04:11:55;;;;;;;4.90;3.88;;;;;;;19.17;30.07;102539.78;7312410;19;128850;-67
2022/01/27 04:14:22;;;;;;;5.80;3.38;;;;;;;19.17;30.09;102550.91;7309802;19;129418;-66
2022/01/27 04:16:48;;;;;;;4.72;3.67;;;;;;;19.16;30.40;102552.78;7312086;19;130572;-66
2022/01/27 04:19:15;;;;;;;4.97;3.30;;;;;;;19.15;30.55;102544.69;7307987;19;130493;-66
2022/01/27 04:21:44;;;;;;;6.03;3.30;;;;;;;19.14;30.13;102543.81;7312203;19;128795;-66
2022/01/27 04:24:15;;;;;;;4.35;3.58;;;;;;;19.14;30.22;102534.66;7308229;19;128853;-66
2022/01/27 04:26:46;;;;;;;3.95;3.38;;;;;;;19.13;30.25;102538.50;7309919;19;130537;-66
2022/01/27 04:29:14;;;;;;;4.43;3.85;;;;;;;19.13;30.10;102535.72;7309214;19;130637;-66
2022/01/27 04:31:43;;;;;;;6.22;3.40;;;;;;;19.13;30.21;102535.72;7310508;19;129672;-66
2022/01/27 04:34:11;;;;;;;5.80;3.47;;;;;;;19.11;30.04;102529.53;7311160;19;129021;-66
2022/01/27 04:36:40;;;;;;;4.40;3.55;;;;;;;19.10;30.45;102523.13;7308579;19;130597;-66
2022/01/27 04:44:28;;;;;;;3.97;3.42;;;;;;;19.07;30.30;102507.78;7315271;19;129774;-66
2022/01/27 04:49:18;;;;;;;3.95;3.30;;;;;;;19.06;30.13;102489.41;7316670;19;130724;-66
2022/01/27 04:51:44;;;;;;;4.35;3.35;;;;;;;19.07;30.10;102484.72;7318118;19;128799;-66
2022/01/27 04:56:40;;;;;;;4.13;3.40;;;;;;;19.11;30.34;102490.69;7317456;19;131609;-66
2022/01/27 04:59:15;;;;;;;5.80;3.80;;;;;;;19.15;30.23;102478.13;7315765;19;130837;-66
2022/01/27 05:01:56;;;;;;;6.47;4.05;;;;;;;19.22;29.85;102488.19;7318088;19;130213;-66
2022/01/27 05:04:29;;;;;;;4.45;3.42;;;;;;;19.35;30.03;102501.19;7314260;19;128943;-66
2022/01/27 05:06:56;;;;;;;4.68;3.17;;;;;;;19.47;29.72;102504.19;7316218;19;130645;-66
2022/01/27 05:09:24;;;;;;;4.03;3.08;;;;;;;19.61;29.75;102493.94;7317683;19;130496;-66
2022/01/27 05:11:59;;;;;;;4.22;3.20;;;;;;;19.79;29.55;102489.66;7315871;19;129887;-66
2022/01/27 05:14:26;;;;;;;4.80;3.30;;;;;;;19.98;29.06;102480.41;7317464;19;128945;-66
2022/01/27 05:16:53;;;;;;;3.88;3.30;;;;;;;20.19;28.95;102483.16;7314035;19;131065;-66
2022/01/27 05:19:20;;;;;;;6.72;3.60;;;;;;;20.40;28.86;102476.47;7318221;19;130828;-66
2022/01/27 05:21:47;;;;;;;4.00;3.15;;;;;;;20.62;28.54;102463.06;7314844;19;131247;-66
2022/01/27 05:24:20;;;;;;;4.57;3.22;;;;;;;20.84;28.32;102476.69;7316984;19;130786;-66
2022/01/27 05:26:47;;;;;;;4.10;2.92;;;;;;;21.05;28.36;102473.53;7313947;19;133856;-66
2022/01/27 05:29:14;;;;;;;4.57;3.03;;;;;;;21.22;27.82;102479.41;7316758;19;130469;-66
2022/01/27 05:31:43;;;;;;;4.38;2.95;;;;;;;21.37;27.88;102483.78;7316595;19;128928;-66
2022/01/27 05:34:10;;;;;;;4.15;2.85;;;;;;;21.48;27.42;102479.38;7313234;19;130503;-66
2022/01/27 05:36:37;;;;;;;3.50;2.90;;;;;;;21.56;27.81;102475.50;7316804;19;130719;-66
2022/01/27 05:39:04;;;;;;;4.93;2.83;;;;;;;21.59;27.43;102481.47;7314376;19;130576;-66
2022/01/27 05:41:31;;;;;;;3.75;2.70;;;;;;;21.62;27.47;102482.94;7318903;19;129955;-66
2022/01/27 05:43:57;;;;;;;3.05;2.75;;;;;;;21.59;27.20;102483.41;7313606;19;129288;-66
2022/01/27 05:46:24;;;;;;;3.38;2.78;;;;;;;21.56;27.28;102473.56;7317801;19;130805;-66
2022/01/27 05:48:51;;;;;;;3.45;2.83;;;;;;;21.54;27.53;102458.19;7313208;19;130618;-66
2022/01/27 05:51:18;;;;;;;4.00;2.90;;;;;;;21.51;27.25;102448.34;7316951;19;129720;-66
2022/01/27 05:53:45;;;;;;;3.72;2.85;;;;;;;21.45;27.34;102443.66;7315283;19;128872;-66
2022/01/27 05:56:11;;;;;;;4.03;3.15;;;;;;;21.41;27.36;102447.97;7310734;19;131346;-66
2022/01/27 05:58:38;;;;;;;4.78;2.95;;;;;;;21.33;27.44;102446.34;7314305;19;130739;-67
2022/01/27 06:01:05;;;;;;;4.03;2.67;;;;;;;21.26;27.72;102434.41;7312060;19;129821;-66
2022/01/27 06:03:32;;;;;;;3.13;2.80;;;;;;;21.19;27.82;102431.69;7312757;19;128866;-66
2022/01/27 06:05:58;;;;;;;3.60;2.63;;;;;;;21.12;28.02;102433.66;7312062;19;130466;-66
2022/01/27 06:08:28;;;;;;;4.25;2.97;;;;;;;21.05;28.08;102440.16;7312877;19;131109;-66
2022/01/27 06:10:55;;;;;;;3.33;2.70;;;;;;;20.98;27.78;102444.06;7310894;19;130450;-66
2022/01/27 06:13:23;;;;;;;3.60;2.92;;;;;;;20.90;28.15;102446.03;7313692;19;128690;-66
2022/01/27 06:15:50;;;;;;;5.80;2.90;;;;;;;20.83;28.05;102441.59;7311032;19;132114;-66
2022/01/27 06:18:17;;;;;;;3.72;2.80;;;;;;;20.77;28.40;102437.78;7313457;19;130481;-66
2022/01/27 06:20:46;;;;;;;4.00;2.60;;;;;;;20.70;28.27;102442.50;7314161;19;130340;-67
2022/01/27 06:23:14;;;;;;;4.45;3.05;;;;;;;20.65;28.54;102439.56;7313406;19;129390;-66
2022/01/27 06:25:41;;;;;;;4.20;3.38;;;;;;;20.58;28.46;102440.44;7306612;19;132146;-67
2022/01/27 06:28:08;;;;;;;6.60;3.72;;;;;;;20.55;28.56;102443.66;7307851;19;131243;-66
2022/01/27 06:30:35;;;;;;;7.85;4.32;;;;;;;20.53;28.82;102437.47;7311219;19;129481;-67
2022/01/27 06:33:04;;;;;;;5.80;4.00;;;;;;;20.54;28.61;102447.53;7313058;19;128937;-67
2022/01/27 06:35:31;;;;;;;6.25;3.88;;;;;;;20.56;28.40;102437.00;7310830;19;130611;-66
2022/01/27 06:37:58;;;;;;;5.60;3.85;;;;;;;20.60;28.59;102429.09;7315105;19;130639;-67
2022/01/27 06:40:25;;;;;;;6.40;3.75;;;;;;;20.67;28.57;102431.84;7313079;19;128897;-67
2022/01/27 06:42:52;;;;;;;5.03;3.85;;;;;;;20.79;28.57;102426.44;7315308;19;128806;-66
2022/01/27 06:45:18;;;;;;;5.35;3.58;;;;;;;20.90;28.37;102421.00;7311213;19;131682;-66
2022/01/27 06:47:45;;;;;;;8.07;4.05;;;;;;;21.06;28.42;102429.84;7313513;19;131567;-66
2022/01/27 06:50:12;;;;;;;5.43;3.95;;;;;;;21.18;27.95;102421.63;7308654;19;130175;-66
2022/01/27 06:52:41;;;;;;;4.68;3.08;;;;;;;21.36;27.98;102431.97;7314477;19;129981;-66
2022/01/27 06:55:12;;;;;;;6.45;3.53;;;;;;;21.54;27.93;102419.19;7311445;19;130748;-66
2022/01/27 06:57:39;;;;;;;5.88;3.40;;;;;;;21.71;27.47;102414.72;7314160;19;132590;-66
2022/01/27 07:00:08;;;;;;;5.28;3.35;;;;;;;21.85;27.68;102397.84;7313508;19;131136;-66
2022/01/27 07:02:35;;;;;;;5.95;3.25;;;;;;;21.95;27.58;102393.44;7313130;19;128956;-66
2022/01/27 07:05:03;;;;;;;6.60;3.20;;;;;;;22.08;27.43;102397.16;7315477;19;130813;-66
2022/01/27 07:07:30;;;;;;;5.53;2.92;;;;;;;22.18;27.39;102391.84;7309713;19;130491;-66
2022/01/27 07:09:57;;;;;;;4.13;3.22;;;;;;;22.26;27.01;102394.34;7315549;19;130089;-66
2022/01/27 07:12:23;;;;;;;6.45;3.40;;;;;;;22.36;27.60;102393.78;7312233;19;129295;-65
2022/01/27 07:14:50;;;;;;;5.15;3.60;;;;;;;22.40;26.81;102395.00;7314988;19;131328;-66
2022/01/27 07:17:19;;;;;;;11.02;3.95;;;;;;;22.44;26.94;102392.59;7312051;19;130525;-66
2022/01/27 07:19:46;;;;;;;7.22;3.72;;;;;;;22.47;26.78;102391.28;7313719;19;131018;-66
2022/01/27 07:22:14;;;;;;;11.52;3.72;;;;;;;22.48;26.73;102384.63;7314985;19;129082;-66
2022/01/27 07:24:40;;;;;;;10.23;4.03;;;;;;;22.49;26.56;102383.53;7312719;19;130670;-66
2022/01/27 07:27:08;;;;;;;7.88;4.28;;;;;;;22.47;26.73;102388.50;7314331;19;130610;-66
2022/01/27 07:29:35;;;;;;;5.95;3.83;;;;;;;22.41;27.00;102391.13;7312310;19;129004;-66
2022/01/27 07:32:02;;;;;;;11.10;3.88;;;;;;;22.37;27.06;102395.50;7310966;19;128937;-66
2022/01/27 07:34:29;;;;;;;6.68;3.95;;;;;;;22.31;26.56;102395.59;7308798;19;130805;-66
2022/01/27 07:36:59;;;;;;;4.78;3.72;;;;;;;22.25;26.87;102400.16;7313579;19;131332;-66
2022/01/27 07:39:26;;;;;;;8.55;3.80;;;;;;;22.21;26.78;102412.88;7311216;19;128782;-65
2022/01/27 07:41:56;;;;;;;7.88;4.18;;;;;;;22.17;26.97;102411.59;7313902;19;128876;-65
2022/01/27 07:44:24;;;;;;;6.95;3.97;;;;;;;22.16;26.97;102409.88;7312999;19;131224;-66
2022/01/27 07:46:51;;;;;;;6.20;4.07;;;;;;;22.13;26.84;102411.22;7310283;19;131611;-66
2022/01/27 07:49:18;;;;;;;7.40;3.53;;;;;;;22.15;26.75;102402.63;7310067;19;129144;-66
2022/01/27 07:51:44;;;;;;;5.20;3.92;;;;;;;22.16;26.84;102407.97;7310960;19;129314;-66
2022/01/27 07:54:11;;;;;;;5.53;3.78;;;;;;;22.19;27.17;102407.50;7313845;19;130758;-66
2022/01/27 07:56:38;;;;;;;7.43;3.83;;;;;;;22.24;26.66;102402.09;7308799;19;130430;-66
2022/01/27 07:59:05;;;;;;;7.00;3.72;;;;;;;22.30;26.76;102414.22;7312089;19;128867;-66
2022/01/27 08:01:32;;;;;;;5.75;3.70;;;;;;;22.39;26.51;102415.63;7310923;19;134282;-66
2022/01/27 08:03:59;;;;;;;6.43;3.80;;;;;;;22.46;26.77;102409.09;7312549;19;131313;-66
2022/01/27 08:06:25;;;;;;;7.80;3.70;;;;;;;22.51;26.50;102412.03;7310518;19;131651;-66
2022/01/27 08:08:52;;;;;;;8.95;3.70;;;;;;;22.55;26.53;102429.97;7311388;19;128966;-66
2022/01/27 08:11:19;;;;;;;5.35;3.65;;;;;;;22.57;26.45;102430.59;7313731;19;128727;-66
2022/01/27 08:13:46;;;;;;;4.97;3.60;;;;;;;22.57;26.68;102425.88;7311191;19;131749;-66
2022/01/27 08:16:13;;;;;;;7.85;3.65;;;;;;;22.57;26.62;102431.47;7313983;19;131643;-66
2022/01/27 08:18:45;;;;;;;6.10;3.35;;;;;;;22.55;26.77;102435.56;7314293;19;131365;-66
2022/01/27 08:21:12;;;;;;;7.57;3.47;;;;;;;22.52;26.29;102419.31;7320263;19;128922;-66
2022/01/27 08:23:41;;;;;;;6.22;3.92;;;;;;;22.49;26.36;102426.19;7318085;19;132997;-66
2022/01/27 08:26:11;;;;;;;5.68;3.95;;;;;;;22.43;26.41;102416.84;7319631;19;131304;-66
2022/01/27 08:28:45;;;;;;;6.75;4.07;;;;;;;22.37;26.68;102412.22;7318080;19;128807;-66
2022/01/27 08:31:14;;;;;;;5.70;3.60;;;;;;;22.30;26.50;102405.88;7318687;19;128997;-66
2022/01/27 08:33:41;;;;;;;5.00;3.33;;;;;;;22.23;26.58;102407.91;7320076;19;130464;-66
2022/01/27 08:36:09;;;;;;;4.80;3.47;;;;;;;22.16;26.92;102407.09;7316467;19;131460;-66
2022/01/27 08:38:41;;;;;;;7.18;3.67;;;;;;;22.08;26.73;102414.69;7320053;19;128696;-66
2022/01/27 08:41:09;;;;;;;6.30;3.75;;;;;;;22.01;27.07;102413.94;7317462;19;128868;-66
2022/01/27 08:43:36;;;;;;;10.50;3.95;;;;;;;21.93;27.21;102417.03;7319893;19;132880;-65
2022/01/27 08:46:03;;;;;;;5.60;4.10;;;;;;;21.87;27.44;102415.19;7317851;19;132422;-66
2022/01/27 08:48:30;;;;;;;6.28;4.10;;;;;;;21.80;27.47;102418.88;7317161;19;128793;-66
2022/01/27 08:51:01;;;;;;;6.47;4.10;;;;;;;21.75;27.27;102413.19;7317105;19;130323;-65
2022/01/27 08:53:48;;;;;;;5.80;4.07;;;;;;;21.69;27.18;102422.44;7316052;19;130699;-65
2022/01/27 08:56:17;;;;;;;5.38;3.83;;;;;;;21.62;27.62;102428.09;7315388;19;131023;-66
2022/01/27 08:58:44;;;;;;;6.70;3.97;;;;;;;21.55;27.84;102421.75;7316288;19;131084;-65
2022/01/27 09:01:11;;;;;;;5.43;3.70;;;;;;;21.49;27.70;102423.53;7318528;19;129097;-66
2022/01/27 09:03:38;;;;;;;6.68;3.90;;;;;;;21.44;27.48;102426.09;7311107;19;131802;-66
2022/01/27 09:06:06;;;;;;;6.70;3.92;;;;;;;21.39;28.08;102423.16;7314583;19;130681;-66
2022/01/27 09:08:40;;;;;;;6.20;3.85;;;;;;;21.32;27.68;102416.78;7315400;19;128981;-66
2022/01/27 09:11:08;;;;;;;7.43;4.22;;;;;;;21.29;28.19;102422.84;7315727;19;129019;-66
2022/01/27 09:13:36;;;;;;;6.70;4.50;;;;;;;21.25;28.06;102418.78;7318098;19;130540;-66
2022/01/27 09:16:03;;;;;;;6.28;4.47;;;;;;;21.21;28.26;102424.81;7315900;19;130543;-66
2022/01/27 09:18:30;;;;;;;6.40;4.30;;;;;;;21.18;27.93;102422.47;7318852;19;128853;-66
2022/01/27 09:20:59;;;;;;;6.50;4.22;;;;;;;21.15;28.16;102422.94;7316026;19;130531;-67
2022/01/27 09:23:26;;;;;;;5.22;4.32;;;;;;;21.14;28.33;102415.69;7318260;19;131649;-65
2022/01/27 09:25:57;;;;;;;6.78;4.80;;;;;;;21.11;28.21;102416.13;7315587;19;130161;-66
2022/01/27 09:28:23;;;;;;;7.40;4.68;;;;;;;21.07;27.92;102414.88;7317467;19;128861;-67
2022/01/27 09:30:50;;;;;;;6.57;4.47;;;;;;;21.04;28.32;102424.53;7313752;19;129686;-67
2022/01/27 09:33:17;;;;;;;6.65;4.25;;;;;;;21.01;28.10;102418.56;7316796;19;130759;-66
2022/01/27 09:35:44;;;;;;;5.35;4.25;;;;;;;20.98;28.31;102417.09;7313926;19;130417;-66
2022/01/27 09:38:11;;;;;;;6.07;4.00;;;;;;;20.96;28.34;102418.38;7316229;19;128834;-66
2022/01/27 09:40:38;;;;;;;8.73;4.65;;;;;;;20.93;28.52;102418.81;7316185;19;129015;-66
2022/01/27 09:43:05;;;;;;;8.20;5.03;;;;;;;20.90;28.35;102420.13;7316044;19;130879;-66
2022/01/27 09:45:37;;;;;;;6.32;4.60;;;;;;;20.90;28.50;102414.56;7312843;19;137011;-66
2022/01/27 09:48:12;;;;;;;8.35;4.78;;;;;;;20.88;28.51;102423.16;7315574;19;128802;-66
2022/01/27 09:51:21;;;;;;;7.43;4.80;;;;;;;20.87;28.67;102427.00;7318460;19;128928;-66
2022/01/27 09:53:46;;;;;;;6.85;4.43;;;;;;;20.87;28.40;102427.00;7313617;19;131576;-66
2022/01/27 09:56:13;;;;;;;7.47;4.35;;;;;;;20.86;28.73;102424.47;7317027;19;130642;-66
2022/01/27 09:59:01;;;;;;;6.43;4.50;;;;;;;20.85;28.73;102431.94;7315722;19;128858;-66
2022/01/27 10:01:28;;;;;;;7.22;4.78;;;;;;;20.84;28.50;102429.41;7315060;19;129769;-66
2022/01/27 10:04:04;;;;;;;7.45;4.55;;;;;;;20.82;28.85;102418.47;7316718;19;130457;-66
2022/01/27 10:06:33;;;;;;;6.43;4.20;;;;;;;20.84;28.73;102421.91;7314641;19;131428;-66
2022/01/27 10:09:18;;;;;;;10.60;4.20;;;;;;;20.88;28.96;102417.59;7316316;19;128845;-66
2022/01/27 10:11:48;;;;;;;7.07;4.40;;;;;;;20.94;28.92;102428.88;7313192;19;129054;-66
2022/01/27 10:14:22;;;;;;;6.05;4.32;;;;;;;21.01;28.90;102418.56;7316984;19;130594;-66
2022/01/27 10:16:53;;;;;;;6.72;3.70;;;;;;;21.12;28.87;102434.53;7314585;19;130500;-66
2022/01/27 10:19:22;;;;;;;5.00;3.35;;;;;;;21.25;28.52;102427.16;7315666;19;130276;-67
2022/01/27 10:21:49;;;;;;;4.88;3.92;;;;;;;21.40;28.65;102444.34;7316623;19;128968;-65
2022/01/27 10:24:26;;;;;;;6.63;3.80;;;;;;;21.57;28.58;102424.28;7315276;19;130552;-66
2022/01/27 10:27:45;;;;;;;6.38;3.55;;;;;;;21.74;28.46;102430.97;7316744;19;130682;-66
2022/01/27 10:32:51;;;;;;;5.47;3.38;;;;;;;22.05;27.75;102434.66;7311294;19;128763;-67
2022/01/27 10:35:26;;;;;;;5.28;3.75;;;;;;;22.17;28.15;102433.88;7312111;19;130656;-67
2022/01/27 10:38:07;;;;;;;4.53;3.50;;;;;;;22.30;27.52;102442.13;7315120;19;130824;-67
2022/01/27 10:40:47;;;;;;;5.07;3.13;;;;;;;22.41;27.76;102427.38;7316220;19;129368;-66
2022/01/27 10:43:15;;;;;;;4.97;3.38;;;;;;;22.49;27.66;102425.34;7313389;19;128889;-66
2022/01/27 10:46:00;;;;;;;4.57;3.42;;;;;;;22.54;27.44;102428.28;7313316;19;131215;-66
2022/01/27 10:48:31;;;;;;;6.60;3.00;;;;;;;22.55;27.74;102430.84;7313094;19;130988;-67
2022/01/27 10:51:14;;;;;;;4.82;3.42;;;;;;;22.55;27.29;102424.41;7315724;19;129098;-67
2022/01/27 10:53:54;;;;;;;4.18;3.15;;;;;;;22.53;27.47;102421.00;7313421;19;129193;-66
2022/01/27 10:56:25;;;;;;;4.43;3.30;;;;;;;22.52;27.62;102422.94;7313553;19;130644;-66
2022/01/27 10:58:54;;;;;;;4.38;3.03;;;;;;;22.49;27.55;102428.97;7315076;19;131203;-66
2022/01/27 11:01:23;;;;;;;5.15;3.40;;;;;;;22.47;27.36;102428.38;7313084;19;129509;-66
2022/01/27 11:03:52;;;;;;;4.22;2.97;;;;;;;22.41;27.79;102416.22;7315831;19;129022;-66
2022/01/27 11:06:24;;;;;;;4.05;3.10;;;;;;;22.37;28.02;102417.81;7312412;19;134212;-67
2022/01/27 11:08:54;;;;;;;4.53;3.25;;;;;;;22.33;27.71;102422.13;7313758;19;130570;-66
2022/01/27 11:11:23;;;;;;;5.72;3.38;;;;;;;22.28;27.64;102419.19;7313148;19;129337;-66
2022/01/27 11:13:51;;;;;;;4.50;3.15;;;;;;;22.22;27.94;102393.09;7314086;19;130654;-67
2022/01/27 11:16:23;;;;;;;3.80;2.83;;;;;;;22.20;28.01;102399.97;7312360;19;130703;-66
2022/01/27 11:18:50;;;;;;;3.92;3.00;;;;;;;22.15;28.09;102402.63;7313205;19;131269;-66
2022/01/27 11:21:30;;;;;;;4.78;3.35;;;;;;;22.10;27.99;102397.75;7315245;19;128991;-67
2022/01/27 11:24:15;;;;;;;5.07;3.15;;;;;;;22.04;28.04;102396.75;7312727;19;129602;-66
2022/01/27 11:26:45;;;;;;;3.47;2.92;;;;;;;21.98;28.22;102401.31;7314610;19;130641;-66
2022/01/27 11:29:14;;;;;;;4.93;3.05;;;;;;;21.93;28.08;102394.75;7311958;19;131301;-66
2022/01/27 11:32:00;;;;;;;5.35;3.10;;;;;;;21.91;28.12;102402.50;7314655;19;129168;-66
2022/01/27 11:34:50;;;;;;;4.25;2.95;;;;;;;21.85;28.43;102400.63;7311759;19;128722;-66
2022/01/27 11:37:29;;;;;;;4.90;2.97;;;;;;;21.80;28.31;102396.59;7310624;19;135385;-66
2022/01/27 11:40:03;;;;;;;5.57;2.67;;;;;;;21.75;28.53;102393.69;7311510;19;130311;-66
2022/01/27 11:42:56;;;;;;;4.05;2.90;;;;;;;21.73;28.51;102386.63;7304743;19;129399;-66
2022/01/27 11:45:23;;;;;;;5.32;2.95;;;;;;;21.71;28.75;102375.72;7315573;19;129202;-66
2022/01/27 11:47:59;;;;;;;4.03;2.90;;;;;;;21.75;28.76;102387.25;7312319;19;130644;-66
2022/01/27 11:50:35;;;;;;;3.95;2.80;;;;;;;21.78;28.86;102378.44;7311617;19;131642;-66
2022/01/27 11:53:14;;;;;;;3.78;2.60;;;;;;;21.82;28.89;102383.28;7310092;19;129025;-66
2022/01/27 11:55:44;;;;;;;3.45;2.60;;;;;;;21.86;28.67;102375.31;7311211;19;129246;-66
2022/01/27 11:58:25;;;;;;;3.97;2.60;;;;;;;21.91;28.78;102377.44;7313015;19;131866;-66
2022/01/27 12:01:06;;;;;;;3.47;2.75;;;;;;;21.94;28.66;102369.44;7310185;19;131327;-66
2022/01/27 12:03:34;;;;;;;4.57;2.90;;;;;;;21.97;29.04;102373.69;7314629;19;128866;-66
2022/01/27 12:06:20;;;;;;;3.95;2.50;;;;;;;22.01;28.85;102358.22;7312296;19;129092;-66
2022/01/27 12:08:47;;;;;;;4.40;2.70;;;;;;;22.03;28.74;102363.53;7310851;19;131580;-66
2022/01/27 12:11:57;;;;;;;4.00;2.67;;;;;;;22.07;28.40;102368.41;7313757;19;130606;-66
2022/01/27 12:14:32;;;;;;;3.65;2.50;;;;;;;22.08;28.47;102370.13;7311571;19;130467;-66
2022/01/27 12:17:08;;;;;;;4.57;2.30;;;;;;;22.12;28.70;102365.78;7314168;19;129352;-67
2022/01/27 12:20:08;;;;;;;2.90;2.43;;;;;;;22.15;28.58;102374.75;7309496;19;130704;-66
2022/01/27 12:22:43;;;;;;;3.22;2.53;;;;;;;22.18;28.91;102368.69;7309936;19;131020;-66
2022/01/27 12:25:10;;;;;;;3.53;2.47;;;;;;;22.20;28.71;102360.94;7311127;19;129048;-66
2022/01/27 12:27:37;;;;;;;3.40;2.20;;;;;;;22.21;28.83;102366.34;7310747;19;128937;-67
2022/01/27 12:30:18;;;;;;;3.25;2.38;;;;;;;22.22;28.46;102358.81;7311667;19;130749;-66